ADDS METAR Data INFO
IDs: Format: Raw Decoded Include TAF

Data at: 2016 UTC 23 May 2018

METAR for:KJAQ (Jackson/Westover Fld, CA, US)
Text:KJAQ 231955Z AUTO 24005KT 10SM SCT110 19/12 A2994 RMK AO1 T01880115
Temperature: 18.8°C ( 66°F)
Dewpoint: 11.5°C ( 53°F) [RH = 63%]
Pressure (altimeter):29.94 inches Hg (1014.0 mb)
Winds:from the WSW (240 degrees) at 6 MPH (5 knots; 2.6 m/s)
Visibility:10 or more sm (16+ km)
Ceiling:at least 12,000 feet AGL
Clouds: scattered clouds at 11000 feet AGL
QC Flag:automated observation with no human augmentation
Text:KJAQ 231935Z AUTO 25006KT 10SM SCT110 19/12 A2994 RMK AO1 T01850116
Temperature: 18.5°C ( 65°F)
Dewpoint: 11.6°C ( 53°F) [RH = 64%]
Pressure (altimeter):29.94 inches Hg (1014.0 mb)
Winds:from the WSW (250 degrees) at 7 MPH (6 knots; 3.1 m/s)
Visibility:10 or more sm (16+ km)
Ceiling:at least 12,000 feet AGL
Clouds: scattered clouds at 11000 feet AGL
QC Flag:automated observation with no human augmentation